createdAt,value
2016-09-24T20:28:54.894Z,12.62
2016-09-24T20:29:07.393Z,12.62
2016-09-24T20:30:07.921Z,12.65
2016-09-24T20:31:07.697Z,12.70
2016-09-24T20:32:07.383Z,12.73
2016-09-24T20:33:08.065Z,12.77
2016-09-24T20:34:07.901Z,12.78
2016-09-24T20:35:07.511Z,12.71
2016-09-24T20:36:08.311Z,12.74
2016-09-24T20:37:07.898Z,12.66
2016-09-24T20:38:07.482Z,12.64
2016-09-24T20:39:08.299Z,12.58
2016-09-24T20:40:08.069Z,12.54
2016-09-24T20:41:07.797Z,12.49
2016-09-24T20:42:07.561Z,12.45
2016-09-24T20:43:08.263Z,12.44
2016-09-24T20:44:07.646Z,12.40
2016-09-24T20:45:07.386Z,12.42
2016-09-24T20:46:08.116Z,12.39
2016-09-24T20:47:07.852Z,12.35
2016-09-24T20:48:07.613Z,12.32
2016-09-24T20:49:07.283Z,12.26
2016-09-24T20:50:07.945Z,12.25
2016-09-24T20:51:07.623Z,12.23
2016-09-24T20:52:07.245Z,12.22
2016-09-24T20:53:08.024Z,12.19
2016-09-24T20:54:07.873Z,12.23
2016-09-24T20:55:07.766Z,12.28
2016-09-24T20:56:07.403Z,12.30
2016-09-24T20:57:07.994Z,12.33
2016-09-24T20:58:07.783Z,12.37
2016-09-24T20:59:07.404Z,12.36
2016-09-24T21:00:08.254Z,12.36
2016-09-24T21:01:07.933Z,12.36
2016-09-24T21:02:07.601Z,12.31
2016-09-24T21:03:07.244Z,12.26
2016-09-24T21:04:07.885Z,12.20
2016-09-24T21:05:07.595Z,12.15
2016-09-24T21:06:07.226Z,12.13
2016-09-24T21:07:07.833Z,12.14
2016-09-24T21:08:07.523Z,12.12
2016-09-24T21:09:08.133Z,12.18
2016-09-24T21:10:07.732Z,12.16
2016-09-24T21:11:07.439Z,12.09
2016-09-24T21:12:08.202Z,12.09
2016-09-24T21:13:07.829Z,12.11
2016-09-24T21:14:07.623Z,12.04
2016-09-24T21:15:07.322Z,12.05
2016-09-24T21:16:08.210Z,11.99
2016-09-24T21:17:08.081Z,11.99
2016-09-24T21:18:07.623Z,12.03
2016-09-24T21:19:07.626Z,12.09
2016-09-24T21:20:07.255Z,12.05
2016-09-24T21:21:07.942Z,12.04
2016-09-24T21:22:07.504Z,12.05
2016-09-24T21:23:08.282Z,12.07
2016-09-24T21:24:07.923Z,12.03
2016-09-24T21:25:07.411Z,12.00
2016-09-24T21:26:07.982Z,11.94
2016-09-24T21:27:07.823Z,11.94
2016-09-24T21:28:07.527Z,11.98
2016-09-24T21:29:08.338Z,11.93
2016-09-24T21:30:08.013Z,11.92
2016-09-24T21:31:08.365Z,11.87
2016-09-24T21:32:08.211Z,11.89
2016-09-24T21:33:07.713Z,11.95
2016-09-24T21:34:07.397Z,11.89
2016-09-24T21:35:07.999Z,11.86
2016-09-24T21:36:07.802Z,11.86
2016-09-24T21:37:07.501Z,11.90
2016-09-24T21:38:08.023Z,11.86
2016-09-24T21:39:07.765Z,11.91
2016-09-24T21:40:07.551Z,11.99
2016-09-24T21:41:08.356Z,12.02
2016-09-24T21:42:07.830Z,11.99
2016-09-24T21:43:07.474Z,12.05
2016-09-24T21:44:08.140Z,12.01
2016-09-24T21:45:07.611Z,11.94
2016-09-24T21:46:07.106Z,11.91
2016-09-24T21:47:07.558Z,11.84
2016-09-24T21:48:08.163Z,11.80
2016-09-24T21:49:07.953Z,11.73
2016-09-24T21:50:07.493Z,11.74
2016-09-24T21:51:08.005Z,11.74
2016-09-24T21:52:07.579Z,11.82
2016-09-24T21:53:08.289Z,11.85
2016-09-24T21:54:08.296Z,11.82
2016-09-24T21:55:07.837Z,11.71
2016-09-24T21:56:07.333Z,11.69
2016-09-24T21:57:07.896Z,11.68
2016-09-24T21:58:07.497Z,11.66
2016-09-24T21:59:08.009Z,11.63
2016-09-24T22:00:07.587Z,11.59
2016-09-24T22:01:07.524Z,11.57
2016-09-24T22:02:08.312Z,11.52
2016-09-24T22:03:07.892Z,11.56
2016-09-24T22:04:07.431Z,11.55
2016-09-24T22:05:07.971Z,11.51
2016-09-24T22:06:07.494Z,11.50
2016-09-24T22:07:08.283Z,11.47
2016-09-24T22:08:07.794Z,11.45
2016-09-24T22:09:07.260Z,11.47
2016-09-24T22:10:07.703Z,11.47
2016-09-24T22:11:07.252Z,11.45
2016-09-24T22:12:07.797Z,11.47
2016-09-24T22:13:07.389Z,11.57
2016-09-24T22:14:07.969Z,11.63
2016-09-24T22:15:07.695Z,11.63
2016-09-24T22:16:07.267Z,11.57
2016-09-24T22:17:07.844Z,11.50
2016-09-24T22:18:07.427Z,11.49
2016-09-24T22:19:07.883Z,11.41
2016-09-24T22:20:07.419Z,11.28
2016-09-24T22:21:07.899Z,11.26
2016-09-24T22:22:07.551Z,11.20
2016-09-24T22:23:07.355Z,11.19
2016-09-24T22:24:07.987Z,11.21
2016-09-24T22:25:07.882Z,11.20
2016-09-24T22:26:07.796Z,11.23
2016-09-24T22:27:07.735Z,11.21
2016-09-24T22:28:07.313Z,11.25
2016-09-24T22:29:07.184Z,11.25
2016-09-24T22:30:07.696Z,11.20
2016-09-24T22:31:07.285Z,11.19
2016-09-24T22:32:07.772Z,11.20
2016-09-24T22:33:07.349Z,11.18
2016-09-24T22:34:07.911Z,11.21
2016-09-24T22:35:07.477Z,11.19
2016-09-24T22:36:08.245Z,11.17
2016-09-24T22:37:07.956Z,11.18
2016-09-24T22:38:07.509Z,11.18
2016-09-24T22:39:08.019Z,11.14
2016-09-24T22:40:07.912Z,11.12
2016-09-24T22:41:07.386Z,11.12
2016-09-24T22:42:08.044Z,11.04
2016-09-24T22:43:07.801Z,11.04
2016-09-24T22:44:07.428Z,11.05
2016-09-24T22:45:08.000Z,11.09
2016-09-24T22:46:07.634Z,11.08
2016-09-24T22:47:07.259Z,11.03
2016-09-24T22:48:07.745Z,11.07
2016-09-24T22:49:07.266Z,11.05
2016-09-24T22:50:07.755Z,11.07
2016-09-24T22:51:07.394Z,11.10
2016-09-24T22:52:08.018Z,11.05
2016-09-24T22:53:07.755Z,11.06
2016-09-24T22:54:07.209Z,11.03
2016-09-24T22:55:07.765Z,10.97
2016-09-24T22:56:07.271Z,10.87
2016-09-24T22:57:08.128Z,10.92
2016-09-24T22:58:07.545Z,10.87
2016-09-24T22:59:08.340Z,10.90
2016-09-24T23:00:07.989Z,10.85
2016-09-24T23:01:07.701Z,10.87
2016-09-24T23:02:07.376Z,10.97
2016-09-24T23:03:07.975Z,10.91
2016-09-24T23:04:07.521Z,10.89
2016-09-24T23:05:08.034Z,10.90
2016-09-24T23:06:07.440Z,10.95
2016-09-24T23:07:07.916Z,10.89
2016-09-24T23:08:07.415Z,10.83
2016-09-24T23:09:07.885Z,10.83
2016-09-24T23:10:07.361Z,10.80
2016-09-24T23:11:07.891Z,10.79
2016-09-24T23:12:07.424Z,10.75
2016-09-24T23:13:07.426Z,10.74
2016-09-24T23:14:08.018Z,10.80
2016-09-24T23:15:07.559Z,10.75
2016-09-24T23:16:08.108Z,10.72
2016-09-24T23:17:07.727Z,10.80
2016-09-24T23:18:07.343Z,10.74
2016-09-24T23:19:07.894Z,10.69
2016-09-24T23:20:07.487Z,10.73
2016-09-24T23:21:08.338Z,10.70
2016-09-24T23:22:07.960Z,10.68
2016-09-24T23:23:07.466Z,10.69
2016-09-24T23:24:08.087Z,10.69
2016-09-24T23:25:07.668Z,10.69
2016-09-24T23:26:07.143Z,10.70
2016-09-24T23:27:07.696Z,10.72
2016-09-24T23:28:07.296Z,10.68
2016-09-24T23:29:08.098Z,10.62
2016-09-24T23:30:07.578Z,10.62
2016-09-24T23:31:08.078Z,10.53
2016-09-24T23:32:07.590Z,10.50
2016-09-24T23:33:07.069Z,10.54
2016-09-24T23:34:07.628Z,10.56
2016-09-24T23:35:07.202Z,10.62
2016-09-24T23:36:08.038Z,10.69
2016-09-24T23:37:07.775Z,10.76
2016-09-24T23:38:07.314Z,10.80
2016-09-24T23:39:08.028Z,10.85
2016-09-24T23:40:07.588Z,10.88
2016-09-24T23:41:08.388Z,10.83
2016-09-24T23:42:08.038Z,10.67
2016-09-24T23:43:07.852Z,10.60
2016-09-24T23:44:07.318Z,10.54
2016-09-24T23:45:07.926Z,10.55
2016-09-24T23:46:07.475Z,10.51
2016-09-24T23:47:08.329Z,10.56
2016-09-24T23:48:07.973Z,10.61
2016-09-24T23:49:07.436Z,10.61
2016-09-24T23:50:08.329Z,10.61
2016-09-24T23:51:07.872Z,10.58
2016-09-24T23:52:07.374Z,10.59
2016-09-24T23:53:08.022Z,10.55
2016-09-24T23:54:07.539Z,10.55
2016-09-24T23:55:08.189Z,10.52
2016-09-24T23:56:07.882Z,10.52
2016-09-24T23:57:07.367Z,10.52
2016-09-24T23:58:07.908Z,10.57
2016-09-24T23:59:07.384Z,10.60
